Time;durP1;ratioP1;P1;durP2;ratioP2;P2;SDS_P1;SDS_P2;PMS_P1;PMS_P2;Temp;Humidity;BMP_temperature;BMP_pressure;BME280_temperature;BME280_humidity;BME280_pressure;Samples;Min_cycle;Max_cycle;Signal;HPM_P1;HPM_P2
2023/01/08 00:01:11;;;;;;;;;;;;;;;24.51;30.13;95633.03;5012795;28;835;-65
2023/01/08 00:03:37;;;;;;;;;;;;;;;24.52;30.11;95626.59;5012728;28;1899;-65
2023/01/08 00:06:04;;;;;;;;;;;;;;;24.51;30.24;95630.34;5003783;28;1141;-65
2023/01/08 00:08:30;;;;;;;;;;;;;;;24.51;30.14;95624.97;5012669;28;831;-65
2023/01/08 00:10:56;;;;;;;;;;;;;;;24.51;30.07;95627.66;5013176;28;890;-65
2023/01/08 00:13:21;;;;;;;;;;;;;;;24.51;30.21;95625.78;5012908;28;800;-65
2023/01/08 00:15:46;;;;;;;;;;;;;;;24.51;29.95;95624.97;5007600;28;1250;-65
2023/01/08 00:18:11;;;;;;;;;;;;;;;24.51;29.97;95624.97;5008619;28;1157;-65
2023/01/08 00:20:40;;;;;;;;;;;;;;;24.51;30.06;95619.59;5012430;28;867;-65
2023/01/08 00:23:05;;;;;;;;;;;;;;;24.50;30.21;95620.63;5011910;28;1965;-65
2023/01/08 00:25:31;;;;;;;;;;;;;;;24.50;30.12;95623.31;5012713;28;863;-65
2023/01/08 00:27:56;;;;;;;;;;;;;;;24.49;30.28;95611.75;5003076;28;1047;-64
2023/01/08 00:30:21;;;;;;;;;;;;;;;24.49;30.09;95613.63;5012217;28;1177;-65
2023/01/08 00:32:47;;;;;;;;;;;;;;;24.49;30.12;95619.81;5012054;28;863;-65
2023/01/08 00:35:12;;;;;;;;;;;;;;;24.50;30.31;95621.44;5011203;28;1270;-64
2023/01/08 00:37:37;;;;;;;;;;;;;;;24.50;30.12;95617.94;5012355;28;871;-65
2023/01/08 00:40:02;;;;;;;;;;;;;;;24.49;30.26;95619.81;5002960;28;1131;-65
2023/01/08 00:42:28;;;;;;;;;;;;;;;24.50;30.23;95628.69;5010840;28;1930;-65
2023/01/08 00:44:53;;;;;;;;;;;;;;;24.50;30.03;95617.94;5012508;28;883;-65
2023/01/08 00:47:18;;;;;;;;;;;;;;;24.50;30.25;95623.31;5011030;28;1234;-65
2023/01/08 00:49:44;;;;;;;;;;;;;;;24.49;30.06;95619.00;5007937;28;1091;-65
2023/01/08 00:52:09;;;;;;;;;;;;;;;24.50;30.13;95618.75;5007281;28;1147;-65
2023/01/08 00:54:34;;;;;;;;;;;;;;;24.50;30.07;95626.00;5012251;28;923;-65
2023/01/08 00:56:59;;;;;;;;;;;;;;;24.49;30.12;95613.63;5012337;28;934;-65
2023/01/08 00:59:25;;;;;;;;;;;;;;;24.49;30.10;95619.00;5012560;28;862;-65
2023/01/08 01:01:53;;;;;;;;;;;;;;;24.49;30.02;95621.69;5002386;28;1066;-65
2023/01/08 01:04:18;;;;;;;;;;;;;;;24.49;30.21;95627.03;5011672;28;1898;-66
2023/01/08 01:06:43;;;;;;;;;;;;;;;24.49;30.04;95632.41;5011972;28;942;-65
2023/01/08 01:09:08;;;;;;;;;;;;;;;24.49;30.27;95627.03;5010267;28;870;-65
2023/01/08 01:11:34;;;;;;;;;;;;;;;24.48;30.14;95628.91;5011921;28;830;-65
2023/01/08 01:13:59;;;;;;;;;;;;;;;24.49;30.15;95619.00;5002429;28;1057;-65
2023/01/08 01:16:24;;;;;;;;;;;;;;;24.47;30.35;95621.88;5011421;28;862;-65
2023/01/08 01:18:51;;;;;;;;;;;;;;;24.48;30.28;95622.69;5012018;28;803;-64
2023/01/08 01:21:23;;;;;;;;;;;;;;;24.49;30.20;95625.19;5011797;28;902;-65
2023/01/08 01:23:49;;;;;;;;;;;;;;;24.49;30.38;95627.84;5006394;28;1959;-65
2023/01/08 01:26:19;;;;;;;;;;;;;;;24.48;30.35;95620.00;5006914;28;1131;-65
2023/01/08 01:28:48;;;;;;;;;;;;;;;24.47;30.09;95621.88;5011610;28;1306;-65
2023/01/08 01:31:13;;;;;;;;;;;;;;;24.48;30.13;95622.69;5011405;28;857;-65
2023/01/08 01:33:39;;;;;;;;;;;;;;;24.48;29.94;95620.00;5010555;28;811;-66
2023/01/08 01:36:05;;;;;;;;;;;;;;;24.46;30.14;95620.25;5000435;28;1423;-65
2023/01/08 01:38:30;;;;;;;;;;;;;;;24.46;30.10;95623.75;5010011;28;1459;-65
2023/01/08 01:40:55;;;;;;;;;;;;;;;24.48;30.24;95620.00;5011565;28;800;-65
2023/01/08 01:43:37;;;;;;;;;;;;;;;24.46;30.26;95612.19;5011236;28;1922;-65
2023/01/08 01:46:05;;;;;;;;;;;;;;;24.45;30.23;95611.38;5009960;28;846;-68
2023/01/08 01:48:30;;;;;;;;;;;;;;;24.45;30.17;95608.69;5002427;28;1505;-66
2023/01/08 01:50:56;;;;;;;;;;;;;;;24.46;30.26;95606.84;5011292;28;851;-65
2023/01/08 01:53:32;;;;;;;;;;;;;;;24.46;30.26;95612.19;5009406;28;1376;-65
2023/01/08 01:55:59;;;;;;;;;;;;;;;24.46;29.95;95618.38;5011359;28;815;-65
2023/01/08 01:58:28;;;;;;;;;;;;;;;24.46;30.21;95615.69;5002235;28;1049;-65
2023/01/08 02:00:55;;;;;;;;;;;;;;;24.46;30.40;95606.84;5009386;28;1377;-65
2023/01/08 02:03:22;;;;;;;;;;;;;;;24.45;30.19;95611.38;5011012;28;1910;-65
2023/01/08 02:05:47;;;;;;;;;;;;;;;24.46;30.11;95609.50;5009617;28;1185;-66
2023/01/08 02:08:17;;;;;;;;;;;;;;;24.46;30.07;95604.16;5010896;28;910;-66
2023/01/08 02:10:53;;;;;;;;;;;;;;;24.46;30.14;95596.09;5002077;28;1330;-66
2023/01/08 02:13:28;;;;;;;;;;;;;;;24.45;30.26;95597.97;5009682;28;1222;-67
2023/01/08 02:15:59;;;;;;;;;;;;;;;24.45;30.23;95600.66;5009134;28;895;-64
2023/01/08 02:18:32;;;;;;;;;;;;;;;24.44;30.04;95593.63;5010971;28;815;-65
2023/01/08 02:21:03;;;;;;;;;;;;;;;24.44;30.21;95593.63;5000716;28;1197;-67
2023/01/08 02:23:35;;;;;;;;;;;;;;;24.44;30.39;95590.94;5008795;28;1899;-65
2023/01/08 02:26:06;;;;;;;;;;;;;;;24.45;30.08;95594.47;5010657;28;871;-64
2023/01/08 02:28:35;;;;;;;;;;;;;;;24.44;30.30;95580.22;5010777;28;1327;-64
2023/01/08 02:31:01;;;;;;;;;;;;;;;24.44;30.13;95582.91;5009136;28;1198;-66
2023/01/08 02:33:27;;;;;;;;;;;;;;;24.44;30.07;95582.09;5001457;28;1030;-64
2023/01/08 02:36:11;;;;;;;;;;;;;;;24.44;30.12;95580.22;5010456;28;992;-64
2023/01/08 02:38:41;;;;;;;;;;;;;;;24.43;30.18;95577.75;5009476;28;1187;-66
2023/01/08 02:41:09;;;;;;;;;;;;;;;24.43;30.11;95573.22;5010854;28;819;-65
2023/01/08 02:43:37;;;;;;;;;;;;;;;24.43;30.38;95570.53;5003866;28;1926;-66
2023/01/08 02:46:03;;;;;;;;;;;;;;;24.44;30.14;95576.72;5011508;28;1311;-64
2023/01/08 02:48:40;;;;;;;;;;;;;;;24.43;30.18;95573.22;5013182;28;1181;-65
2023/01/08 02:51:22;;;;;;;;;;;;;;;24.43;30.09;95565.16;5014333;28;886;-69
2023/01/08 02:53:50;;;;;;;;;;;;;;;24.43;30.26;95562.50;5013254;28;1448;-69
2023/01/08 02:56:19;;;;;;;;;;;;;;;24.42;30.05;95568.88;5004831;28;1044;-70
2023/01/08 02:58:46;;;;;;;;;;;;;;;24.43;30.23;95559.00;5014472;28;804;-68
2023/01/08 03:01:13;;;;;;;;;;;;;;;24.42;30.23;95562.69;5014533;28;890;-68
2023/01/08 03:03:40;;;;;;;;;;;;;;;24.43;30.28;95575.91;5012787;28;1957;-68
2023/01/08 03:06:07;;;;;;;;;;;;;;;24.44;30.16;95574.03;5009020;28;956;-68
2023/01/08 03:08:34;;;;;;;;;;;;;;;24.42;30.37;95584.97;5009722;28;943;-68
2023/01/08 03:11:03;;;;;;;;;;;;;;;24.42;30.15;95582.28;5014523;28;824;-68
2023/01/08 03:13:39;;;;;;;;;;;;;;;24.42;30.36;95576.91;5014018;28;886;-68
2023/01/08 03:16:07;;;;;;;;;;;;;;;24.42;30.04;95579.59;5014213;28;917;-68
2023/01/08 03:18:35;;;;;;;;;;;;;;;24.43;30.09;95575.91;5005047;28;1157;-68
2023/01/08 03:21:02;;;;;;;;;;;;;;;24.42;30.16;95576.09;5013617;28;930;-67
2023/01/08 03:23:31;;;;;;;;;;;;;;;24.43;30.28;95578.59;5012971;28;1898;-68
2023/01/08 03:25:57;;;;;;;;;;;;;;;24.42;30.10;95584.16;5013924;28;853;-68
2023/01/08 03:28:29;;;;;;;;;;;;;;;24.42;30.19;95576.91;5009475;28;1412;-68
2023/01/08 03:30:55;;;;;;;;;;;;;;;24.42;30.30;95581.47;5007706;28;1311;-68
2023/01/08 03:33:21;;;;;;;;;;;;;;;24.41;29.97;95571.75;5012665;28;1369;-68
2023/01/08 03:35:49;;;;;;;;;;;;;;;24.42;30.00;95579.59;5011779;28;1383;-68
2023/01/08 03:38:21;;;;;;;;;;;;;;;24.41;30.09;95577.13;5014039;28;867;-68
2023/01/08 03:40:48;;;;;;;;;;;;;;;24.41;29.96;95577.94;5003334;28;1179;-68
2023/01/08 03:43:13;;;;;;;;;;;;;;;24.41;30.13;95572.56;5011749;28;1987;-68
2023/01/08 03:45:42;;;;;;;;;;;;;;;24.41;30.17;95566.38;5013503;28;851;-68
2023/01/08 03:48:08;;;;;;;;;;;;;;;24.41;30.04;95567.22;5012406;28;1283;-68
2023/01/08 03:50:33;;;;;;;;;;;;;;;24.40;30.31;95560.22;5013074;28;950;-68
2023/01/08 03:52:59;;;;;;;;;;;;;;;24.40;30.29;95576.31;5002925;28;1205;-68
2023/01/08 03:55:24;;;;;;;;;;;;;;;24.40;30.20;95565.56;5012410;28;812;-68
2023/01/08 03:57:49;;;;;;;;;;;;;;;24.40;30.08;95565.56;5011748;28;1178;-68
2023/01/08 04:00:15;;;;;;;;;;;;;;;24.41;30.25;95569.06;5012029;28;1208;-68
2023/01/08 04:02:43;;;;;;;;;;;;;;;24.40;30.07;95567.44;5008428;28;1968;-68
2023/01/08 04:05:09;;;;;;;;;;;;;;;24.40;30.06;95570.94;5008048;28;1078;-67
2023/01/08 04:07:34;;;;;;;;;;;;;;;24.39;30.03;95577.34;5013031;28;871;-68
2023/01/08 04:09:59;;;;;;;;;;;;;;;24.41;30.06;95571.75;5013317;28;852;-68
2023/01/08 04:12:25;;;;;;;;;;;;;;;24.39;30.15;95577.34;5012892;28;941;-68
2023/01/08 04:14:50;;;;;;;;;;;;;;;24.39;30.27;95580.03;5004243;28;1316;-68
2023/01/08 04:17:15;;;;;;;;;;;;;;;24.40;30.23;95581.66;5012825;28;1039;-68
2023/01/08 04:19:40;;;;;;;;;;;;;;;24.39;30.27;95580.03;5012930;28;847;-68
2023/01/08 04:22:08;;;;;;;;;;;;;;;24.39;30.11;95585.41;5011539;28;1906;-68
2023/01/08 04:24:33;;;;;;;;;;;;;;;24.40;30.28;95587.03;5011671;28;1382;-66
2023/01/08 04:26:58;;;;;;;;;;;;;;;24.39;30.28;95585.41;5003683;28;1027;-67
2023/01/08 04:29:23;;;;;;;;;;;;;;;24.39;30.17;95580.03;5012359;28;1141;-67
2023/01/08 04:31:49;;;;;;;;;;;;;;;24.39;30.31;95585.41;5012682;28;965;-67
2023/01/08 04:34:14;;;;;;;;;;;;;;;24.39;30.05;95581.88;5012556;28;930;-67
2023/01/08 04:36:39;;;;;;;;;;;;;;;24.40;30.24;95581.66;5007875;28;1326;-67
2023/01/08 04:39:04;;;;;;;;;;;;;;;24.38;30.19;95591.78;5007629;28;1079;-68
2023/01/08 04:41:30;;;;;;;;;;;;;;;24.38;30.09;95589.09;5012570;28;858;-69
2023/01/08 04:43:55;;;;;;;;;;;;;;;24.39;30.27;95579.19;5012133;28;1891;-67
2023/01/08 04:46:20;;;;;;;;;;;;;;;24.38;30.19;95578.38;5012390;28;866;-67
2023/01/08 04:48:45;;;;;;;;;;;;;;;24.38;30.05;95578.38;5003375;28;1324;-68
2023/01/08 04:51:11;;;;;;;;;;;;;;;24.38;30.08;95583.72;5011641;28;1184;-67
2023/01/08 04:53:37;;;;;;;;;;;;;;;24.38;30.07;95575.69;5012442;28;875;-67
2023/01/08 04:56:07;;;;;;;;;;;;;;;24.37;30.24;95582.09;5010976;28;1252;-67
2023/01/08 04:58:32;;;;;;;;;;;;;;;24.37;30.22;95582.09;5012296;28;791;-68
2023/01/08 05:00:58;;;;;;;;;;;;;;;24.37;30.22;95583.97;5003261;28;973;-68
2023/01/08 05:03:23;;;;;;;;;;;;;;;24.37;30.15;95586.66;5010443;28;1961;-68
2023/01/08 05:05:48;;;;;;;;;;;;;;;24.38;30.25;95589.09;5009995;28;1511;-68
2023/01/08 05:08:13;;;;;;;;;;;;;;;24.35;30.27;95584.16;5010382;28;1196;-68
2023/01/08 05:10:39;;;;;;;;;;;;;;;24.36;30.16;95591.19;5009091;28;978;-69
2023/01/08 05:13:04;;;;;;;;;;;;;;;24.38;30.02;95590.97;5005387;28;968;-68
2023/01/08 05:15:29;;;;;;;;;;;;;;;24.39;30.00;95593.44;5011824;28;915;-69
2023/01/08 05:18:02;;;;;;;;;;;;;;;24.40;30.11;95595.06;5010100;28;1559;-66
2023/01/08 05:20:28;;;;;;;;;;;;;;;24.42;30.25;95598.38;5010923;28;795;-67
2023/01/08 05:22:53;;;;;;;;;;;;;;;24.42;30.25;95594.88;5000819;28;1906;-67
2023/01/08 05:25:19;;;;;;;;;;;;;;;24.44;30.35;95592.81;5011108;28;1154;-67
2023/01/08 05:27:44;;;;;;;;;;;;;;;24.44;30.16;95593.63;5010909;28;914;-66
2023/01/08 05:30:09;;;;;;;;;;;;;;;24.44;30.26;95593.63;5011223;28;1235;-67
2023/01/08 05:32:35;;;;;;;;;;;;;;;24.46;30.11;95599.59;5009842;28;1305;-67
2023/01/08 05:35:00;;;;;;;;;;;;;;;24.47;30.09;95592.38;5001195;28;1271;-67
2023/01/08 05:37:25;;;;;;;;;;;;;;;24.46;29.99;95604.97;5011050;28;855;-67
2023/01/08 05:39:50;;;;;;;;;;;;;;;24.47;30.19;95597.75;5011369;28;829;-68
2023/01/08 05:42:16;;;;;;;;;;;;;;;24.46;30.02;95596.91;5010754;28;1910;-67
2023/01/08 05:44:41;;;;;;;;;;;;;;;24.48;30.04;95598.56;5008859;28;835;-68
2023/01/08 05:47:06;;;;;;;;;;;;;;;24.49;30.20;95600.22;5003860;28;1322;-67
2023/01/08 05:49:31;;;;;;;;;;;;;;;24.49;30.11;95600.22;5010503;28;822;-67
2023/01/08 05:51:57;;;;;;;;;;;;;;;24.49;30.16;95605.59;5009636;28;1398;-67
2023/01/08 05:54:22;;;;;;;;;;;;;;;24.49;30.09;95590.31;5011094;28;799;-66
2023/01/08 05:56:47;;;;;;;;;;;;;;;24.50;30.11;95591.13;5002186;28;1095;-67
2023/01/08 05:59:12;;;;;;;;;;;;;;;24.49;30.14;95601.03;5009704;28;1159;-67
2023/01/08 06:01:38;;;;;;;;;;;;;;;24.50;30.03;95596.50;5010933;28;874;-68
2023/01/08 06:04:03;;;;;;;;;;;;;;;24.51;29.94;95598.16;5010053;28;1975;-67
2023/01/08 06:06:28;;;;;;;;;;;;;;;24.51;30.03;95600.84;5010853;28;858;-67
2023/01/08 06:08:54;;;;;;;;;;;;;;;24.51;30.07;95604.34;5001285;28;1013;-67
2023/01/08 06:11:19;;;;;;;;;;;;;;;24.51;30.19;95606.19;5008983;28;1298;-67
2023/01/08 06:13:44;;;;;;;;;;;;;;;24.51;30.26;95603.50;5010932;28;808;-67
2023/01/08 06:16:10;;;;;;;;;;;;;;;24.51;30.17;95598.97;5010725;28;915;-68
2023/01/08 06:18:35;;;;;;;;;;;;;;;24.51;30.13;95598.16;5009464;28;881;-67
2023/01/08 06:21:01;;;;;;;;;;;;;;;24.52;30.19;95602.47;4999766;28;1412;-67
2023/01/08 06:23:26;;;;;;;;;;;;;;;24.52;30.17;95607.84;5010548;28;1970;-67
2023/01/08 06:25:53;;;;;;;;;;;;;;;24.52;30.12;95611.34;5008736;28;1165;-67
2023/01/08 06:28:18;;;;;;;;;;;;;;;24.51;29.95;95607.00;5010325;28;1130;-67
2023/01/08 06:30:43;;;;;;;;;;;;;;;24.53;30.00;95609.47;5006143;28;1492;-67
2023/01/08 06:33:08;;;;;;;;;;;;;;;24.53;29.84;95612.16;5003973;28;1181;-67
2023/01/08 06:35:34;;;;;;;;;;;;;;;24.53;30.04;95614.81;5010452;28;880;-67
2023/01/08 06:37:59;;;;;;;;;;;;;;;24.53;29.86;95622.88;5010201;28;829;-67
2023/01/08 06:40:24;;;;;;;;;;;;;;;24.53;29.94;95615.66;5010182;28;824;-67
2023/01/08 06:42:50;;;;;;;;;;;;;;;24.54;30.06;95619.19;5001668;28;1910;-67
2023/01/08 06:45:15;;;;;;;;;;;;;;;24.53;29.87;95615.66;5010576;28;1016;-67
2023/01/08 06:47:40;;;;;;;;;;;;;;;24.56;29.91;95627.81;5008967;28;1199;-67
2023/01/08 06:50:06;;;;;;;;;;;;;;;24.54;30.08;95624.53;5009941;28;839;-67
2023/01/08 06:52:31;;;;;;;;;;;;;;;24.55;30.11;95626.19;5009053;28;1414;-67
2023/01/08 06:54:56;;;;;;;;;;;;;;;24.55;30.02;95627.00;5001342;28;1136;-67
2023/01/08 06:57:22;;;;;;;;;;;;;;;24.56;30.13;95633.16;5010025;28;779;-67
2023/01/08 06:59:47;;;;;;;;;;;;;;;24.56;29.91;95628.66;5008916;28;1472;-69
2023/01/08 07:02:13;;;;;;;;;;;;;;;24.57;30.09;95627.59;5010634;28;1965;-67
2023/01/08 07:04:38;;;;;;;;;;;;;;;24.58;29.94;95631.94;5005392;28;1294;-66
2023/01/08 07:07:03;;;;;;;;;;;;;;;24.60;30.01;95639.78;5005850;28;1070;-68
2023/01/08 07:09:29;;;;;;;;;;;;;;;24.60;30.09;95637.09;5010211;28;847;-68
2023/01/08 07:11:54;;;;;;;;;;;;;;;24.62;30.22;95637.72;5010202;28;815;-68
2023/01/08 07:14:19;;;;;;;;;;;;;;;24.63;29.93;95637.47;5010524;28;831;-68
2023/01/08 07:16:44;;;;;;;;;;;;;;;24.65;29.89;95642.63;5001549;28;1203;-68
2023/01/08 07:19:10;;;;;;;;;;;;;;;24.67;29.98;95635.16;5009437;28;973;-67
2023/01/08 07:21:35;;;;;;;;;;;;;;;24.68;29.74;95640.34;5010362;28;882;-67
2023/01/08 07:24:00;;;;;;;;;;;;;;;24.70;29.92;95640.09;5008756;28;1969;-67
2023/01/08 07:26:26;;;;;;;;;;;;;;;24.73;30.05;95646.91;5009815;28;1010;-67
2023/01/08 07:28:51;;;;;;;;;;;;;;;24.74;29.71;95641.34;4999220;28;1256;-67
2023/01/08 07:31:17;;;;;;;;;;;;;;;24.76;29.82;95639.25;5011472;28;910;-67
2023/01/08 07:33:42;;;;;;;;;;;;;;;24.78;29.79;95642.53;5011715;28;1188;-67
2023/01/08 07:36:07;;;;;;;;;;;;;;;24.80;29.79;95645.81;5013553;28;791;-67
2023/01/08 07:38:33;;;;;;;;;;;;;;;24.80;29.75;95645.81;5008982;28;973;-68
2023/01/08 07:40:58;;;;;;;;;;;;;;;24.83;29.90;95644.56;5007941;28;1110;-68
2023/01/08 07:43:24;;;;;;;;;;;;;;;24.86;29.93;95652.19;5012057;28;1984;-67
2023/01/08 07:45:50;;;;;;;;;;;;;;;24.87;29.83;95649.31;5013526;28;858;-67
2023/01/08 07:48:15;;;;;;;;;;;;;;;24.89;29.69;95655.25;5012862;28;741;-67
2023/01/08 07:50:42;;;;;;;;;;;;;;;24.91;29.80;95657.75;5003848;28;1012;-67
2023/01/08 07:53:07;;;;;;;;;;;;;;;24.91;29.82;95653.19;5013014;28;989;-67
2023/01/08 07:55:32;;;;;;;;;;;;;;;24.94;29.70;95651.13;5012822;28;874;-67
2023/01/08 07:57:58;;;;;;;;;;;;;;;24.97;29.78;95662.22;5013156;28;1305;-68
2023/01/08 08:00:23;;;;;;;;;;;;;;;24.98;29.87;95653.13;5011525;28;1200;-68
2023/01/08 08:02:48;;;;;;;;;;;;;;;25.00;29.54;95656.44;5002925;28;1906;-68
2023/01/08 08:05:13;;;;;;;;;;;;;;;25.02;29.69;95653.53;5013050;28;980;-68
2023/01/08 08:07:39;;;;;;;;;;;;;;;25.03;29.62;95652.50;5013079;28;1228;-67
2023/01/08 08:10:04;;;;;;;;;;;;;;;25.05;29.46;95659.28;5012313;28;822;-67
2023/01/08 08:12:30;;;;;;;;;;;;;;;25.07;29.60;95653.69;5007430;28;1307;-68
2023/01/08 08:14:55;;;;;;;;;;;;;;;25.10;29.45;95655.94;5007917;28;1339;-67
2023/01/08 08:17:21;;;;;;;;;;;;;;;25.10;29.39;95651.41;5010785;28;1339;-68
2023/01/08 08:19:46;;;;;;;;;;;;;;;25.11;29.60;95653.03;5012568;28;746;-67
2023/01/08 08:22:12;;;;;;;;;;;;;;;25.13;29.44;95650.13;5012652;28;817;-67
2023/01/08 08:24:37;;;;;;;;;;;;;;;25.14;29.39;95651.81;5001561;28;1898;-68
2023/01/08 08:27:02;;;;;;;;;;;;;;;25.16;29.39;95659.63;5011005;28;1186;-68
2023/01/08 08:29:27;;;;;;;;;;;;;;;25.16;29.43;95657.78;5012781;28;1098;-68
2023/01/08 08:31:53;;;;;;;;;;;;;;;25.16;29.32;95656.94;5011944;28;842;-68
2023/01/08 08:34:21;;;;;;;;;;;;;;;25.17;29.42;95656.75;5011262;28;1414;-68
2023/01/08 08:36:46;;;;;;;;;;;;;;;25.18;29.53;95655.69;5002856;28;1237;-68
2023/01/08 08:39:11;;;;;;;;;;;;;;;25.18;29.42;95661.06;5012170;28;918;-68
2023/01/08 08:41:36;;;;;;;;;;;;;;;25.18;29.43;95661.06;5011689;28;938;-67
2023/01/08 08:44:02;;;;;;;;;;;;;;;25.18;29.41;95657.56;5012349;28;1972;-67
2023/01/08 08:46:28;;;;;;;;;;;;;;;25.17;29.50;95655.94;5010249;28;811;-67
2023/01/08 08:48:53;;;;;;;;;;;;;;;25.18;29.49;95652.19;5003749;28;1270;-67
2023/01/08 08:51:18;;;;;;;;;;;;;;;25.18;29.40;95649.50;5011963;28;870;-67
2023/01/08 08:53:43;;;;;;;;;;;;;;;25.17;29.64;95651.38;5011267;28;1508;-68
2023/01/08 08:56:09;;;;;;;;;;;;;;;25.17;29.43;95654.06;5008651;28;1630;-67
2023/01/08 08:58:34;;;;;;;;;;;;;;;24.95;25.27;95652.75;5002823;28;1703;-67
2023/01/08 09:01:03;;;;;;;;;;;;;;;24.40;26.11;95656.75;5009254;28;1725;-68
2023/01/08 09:03:29;;;;;;;;;;;;;;;24.19;26.39;95655.22;5011789;28;1963;-66
2023/01/08 09:05:55;;;;;;;;;;;;;;;24.00;26.52;95646.19;5010376;28;1570;-68
2023/01/08 09:08:20;;;;;;;;;;;;;;;23.81;25.98;95652.44;5011911;28;1603;-69
2023/01/08 09:10:45;;;;;;;;;;;;;;;23.65;25.88;95655.53;5001995;28;1025;-68
2023/01/08 09:13:10;;;;;;;;;;;;;;;23.55;25.83;95645.25;5010333;28;1683;-67
2023/01/08 09:15:37;;;;;;;;;;;;;;;23.46;25.78;95644.66;5010916;28;1704;-68
2023/01/08 09:18:02;;;;;;;;;;;;;;;23.45;26.11;95643.03;5010713;28;1491;-67
2023/01/08 09:20:28;;;;;;;;;;;;;;;23.46;26.07;95639.28;5007855;28;1730;-67
2023/01/08 09:22:53;;;;;;;;;;;;;;;23.44;25.78;95637.84;5003893;28;1955;-67
2023/01/08 09:25:19;;;;;;;;;;;;;;;23.37;25.50;95645.91;5011590;28;1452;-75
2023/01/08 09:27:44;;;;;;;;;;;;;;;23.07;25.54;95630.25;5011406;28;1597;-67
2023/01/08 09:30:10;;;;;;;;;;;;;;;22.84;26.01;95629.81;5011331;28;1748;-67
2023/01/08 09:32:35;;;;;;;;;;;;;;;22.59;26.34;95622.34;5000632;28;1692;-69
2023/01/08 09:35:00;;;;;;;;;;;;;;;22.48;26.71;95622.94;5011025;28;1766;-68
2023/01/08 09:37:26;;;;;;;;;;;;;;;22.39;26.79;95621.50;5009965;28;1746;-68
2023/01/08 09:39:51;;;;;;;;;;;;;;;22.35;26.73;95618.41;5010669;28;1812;-68
2023/01/08 09:42:21;;;;;;;;;;;;;;;22.33;27.08;95609.75;5010225;28;1536;-68
2023/01/08 09:44:47;;;;;;;;;;;;;;;22.40;27.21;95607.94;5000762;28;1402;-69
2023/01/08 09:47:20;;;;;;;;;;;;;;;22.40;26.93;95596.44;5010747;28;1694;-69
2023/01/08 09:49:47;;;;;;;;;;;;;;;22.38;27.34;95587.78;5009903;28;1557;-69
2023/01/08 09:52:13;;;;;;;;;;;;;;;22.49;26.97;95589.03;5009613;28;1467;-69
2023/01/08 09:54:39;;;;;;;;;;;;;;;22.47;26.99;95591.09;4997393;28;1889;-69
2023/01/08 09:57:04;;;;;;;;;;;;;;;22.43;26.92;95580.81;4986578;28;1083;-69
2023/01/08 09:59:30;;;;;;;;;;;;;;;22.43;27.02;95575.44;5007485;28;1812;-69
2023/01/08 10:01:55;;;;;;;;;;;;;;;22.45;26.91;95568.06;5010485;28;930;-69
2023/01/08 10:04:22;;;;;;;;;;;;;;;22.48;26.80;95566.81;5008769;28;1938;-69
2023/01/08 10:07:00;;;;;;;;;;;;;;;22.43;27.40;95564.75;5001746;28;1589;-70
2023/01/08 10:09:31;;;;;;;;;;;;;;;22.64;26.95;95560.25;5010631;28;863;-68
2023/01/08 10:11:58;;;;;;;;;;;;;;;22.75;26.82;95569.53;4997586;28;1630;-67
2023/01/08 10:14:25;;;;;;;;;;;;;;;22.80;26.92;95559.03;4991889;28;776;-68
2023/01/08 10:17:01;;;;;;;;;;;;;;;22.77;26.86;95554.91;4990962;28;792;-67
2023/01/08 10:19:27;;;;;;;;;;;;;;;22.82;26.69;95551.59;4996717;28;1579;-68
2023/01/08 10:21:52;;;;;;;;;;;;;;;22.85;26.84;95545.84;5010118;28;1690;-68
2023/01/08 10:24:29;;;;;;;;;;;;;;;22.96;27.03;95547.91;5009782;28;1979;-67
2023/01/08 10:27:03;;;;;;;;;;;;;;;23.04;27.44;95539.69;5010448;28;1586;-68
2023/01/08 10:29:28;;;;;;;;;;;;;;;23.06;27.08;95534.94;5001548;28;1469;-68
2023/01/08 10:31:57;;;;;;;;;;;;;;;23.03;27.08;95532.69;5003587;28;1593;-68
2023/01/08 10:34:58;;;;;;;;;;;;;;;23.05;27.07;95530.63;5005792;28;1500;-68
2023/01/08 10:37:45;;;;;;;;;;;;;;;22.98;26.86;95512.94;4948355;28;1772;-68
2023/01/08 10:40:16;;;;;;;;;;;;;;;22.47;27.39;95511.69;4990811;28;1554;-68
2023/01/08 10:42:42;;;;;;;;;;;;;;;21.61;26.83;95511.50;5005063;28;1902;-68
2023/01/08 10:45:15;;;;;;;;;;;;;;;21.05;26.77;95502.56;5007802;28;1625;-69
2023/01/08 10:47:45;;;;;;;;;;;;;;;21.85;26.99;95508.25;5003120;28;1718;-69
2023/01/08 10:50:21;;;;;;;;;;;;;;;22.22;25.75;95503.44;5010200;28;1815;-68
2023/01/08 10:52:53;;;;;;;;;;;;;;;22.40;25.42;95508.22;5001008;28;1063;-69
2023/01/08 10:55:30;;;;;;;;;;;;;;;22.54;25.23;95496.50;5008169;28;1798;-71
2023/01/08 10:58:07;;;;;;;;;;;;;;;22.58;25.19;95497.72;5007853;28;1496;-70
2023/01/08 11:00:34;;;;;;;;;;;;;;;22.53;24.90;95494.81;5005364;28;1517;-71
2023/01/08 11:03:00;;;;;;;;;;;;;;;22.51;24.85;95494.19;5002611;28;1902;-72
2023/01/08 11:05:33;;;;;;;;;;;;;;;22.62;25.56;95490.09;5005924;28;1444;-73
2023/01/08 11:07:59;;;;;;;;;;;;;;;22.66;25.83;95481.47;5017840;28;1606;-73
2023/01/08 11:10:26;;;;;;;;;;;;;;;22.72;26.56;95481.66;5027397;28;1398;-72
2023/01/08 11:13:20;;;;;;;;;;;;;;;22.71;25.66;95480.81;5013267;28;1273;-72
2023/01/08 11:15:55;;;;;;;;;;;;;;;22.80;26.18;95484.94;4994391;28;1490;-70
2023/01/08 11:18:21;;;;;;;;;;;;;;;23.08;26.49;95476.69;5010905;28;1515;-69
2023/01/08 11:20:47;;;;;;;;;;;;;;;23.30;26.35;95476.41;5010704;28;1810;-71
2023/01/08 11:23:17;;;;;;;;;;;;;;;23.48;26.23;95470.34;5012583;28;1898;-71
2023/01/08 11:25:52;;;;;;;;;;;;;;;23.64;26.64;95471.75;5008136;28;1358;-74
2023/01/08 11:28:22;;;;;;;;;;;;;;;23.81;27.54;95474.78;5006732;28;1540;-75
2023/01/08 11:30:52;;;;;;;;;;;;;;;23.96;27.75;95470.78;5011655;28;1664;-71
2023/01/08 11:33:20;;;;;;;;;;;;;;;24.06;28.35;95467.63;5012634;28;1550;-69
2023/01/08 11:35:48;;;;;;;;;;;;;;;24.12;28.08;95460.56;5007731;28;1612;-70
2023/01/08 11:38:14;;;;;;;;;;;;;;;24.14;28.05;95463.88;4996402;28;1445;-69
2023/01/08 11:40:42;;;;;;;;;;;;;;;24.18;27.97;95457.03;5011028;28;1706;-69
2023/01/08 11:43:17;;;;;;;;;;;;;;;24.19;28.00;95455.97;5012617;28;1979;-71
2023/01/08 11:45:54;;;;;;;;;;;;;;;24.22;28.04;95456.38;5008921;28;1655;-69
2023/01/08 11:48:38;;;;;;;;;;;;;;;24.25;27.91;95444.41;5009929;28;1316;-69
2023/01/08 11:51:04;;;;;;;;;;;;;;;24.26;27.94;95446.03;4997431;28;1558;-70
2023/01/08 11:53:47;;;;;;;;;;;;;;;24.27;27.63;95439.63;5010443;28;1631;-72
2023/01/08 11:56:31;;;;;;;;;;;;;;;24.28;27.99;95443.97;5012108;28;1630;-70
2023/01/08 11:59:12;;;;;;;;;;;;;;;24.28;27.97;95433.25;5011426;28;995;-69
2023/01/08 12:01:43;;;;;;;;;;;;;;;24.28;27.98;95435.06;5003161;28;1152;-69
2023/01/08 12:04:27;;;;;;;;;;;;;;;24.28;28.01;95433.25;5010053;28;1898;-69
2023/01/08 12:07:11;;;;;;;;;;;;;;;24.22;27.96;95418.03;5011142;28;1661;-70
2023/01/08 12:09:44;;;;;;;;;;;;;;;24.29;28.14;95418.78;5010861;28;1774;-70
2023/01/08 12:12:10;;;;;;;;;;;;;;;24.30;28.14;95419.59;5007058;28;1579;-69
2023/01/08 12:14:44;;;;;;;;;;;;;;;24.32;28.02;95422.91;5004019;28;1650;-70
2023/01/08 12:17:19;;;;;;;;;;;;;;;24.33;27.72;95411.94;5009700;28;1662;-70
2023/01/08 12:19:47;;;;;;;;;;;;;;;24.33;28.03;95414.63;5003808;28;1295;-69
2023/01/08 12:22:27;;;;;;;;;;;;;;;24.34;27.89;95410.91;5011252;28;1883;-69
2023/01/08 12:24:55;;;;;;;;;;;;;;;24.36;27.95;95410.69;5000425;28;1611;-70
2023/01/08 12:27:59;;;;;;;;;;;;;;;24.38;27.91;95411.28;5010644;28;1731;-70
2023/01/08 12:30:27;;;;;;;;;;;;;;;24.37;27.81;95404.28;4954218;28;1840;-72
2023/01/08 12:32:57;;;;;;;;;;;;;;;24.38;27.92;95406.75;4950745;29;1331;-70
2023/01/08 12:35:25;;;;;;;;;;;;;;;24.40;27.93;95406.53;4980267;28;1607;-72
2023/01/08 12:38:09;;;;;;;;;;;;;;;24.40;27.74;95404.66;5003968;28;2210;-72
2023/01/08 12:40:38;;;;;;;;;;;;;;;24.41;28.01;95392.88;5010283;28;1563;-69
2023/01/08 12:43:06;;;;;;;;;;;;;;;24.42;27.81;95386.50;5009841;28;1977;-69
2023/01/08 12:45:36;;;;;;;;;;;;;;;24.43;27.97;95388.16;5009430;28;1403;-70
2023/01/08 12:48:13;;;;;;;;;;;;;;;24.43;27.78;95388.16;5001925;28;1691;-71
2023/01/08 12:50:48;;;;;;;;;;;;;;;24.45;27.90;95379.91;5010228;28;1522;-70
2023/01/08 12:53:13;;;;;;;;;;;;;;;24.45;27.98;95382.59;5011292;28;1590;-71
2023/01/08 12:55:58;;;;;;;;;;;;;;;24.46;28.01;95381.53;5010532;28;1430;-70
2023/01/08 12:58:37;;;;;;;;;;;;;;;24.46;27.59;95381.53;5005117;28;1640;-71
2023/01/08 13:01:23;;;;;;;;;;;;;;;24.47;27.91;95380.50;5010890;28;1619;-71
2023/01/08 13:03:48;;;;;;;;;;;;;;;24.48;27.84;95378.63;5009115;28;1964;-70